Hlavní strana
METAR-TAF:

METAR-TAF

Letiště :

Kumamoto, Japonsko

zeměpisná šířka: 32-50N, zeměpisná délka: 130-51E, výška: 193 m

Aktuální stav počasí

Zpráva byla vytvořena před 31 minutami, v 06:00 UTC
Západní vítr 5 kt, proměnlivý mezi jihozápadním a severovýchodním
Teplota 17°C
Vlhkost vzduchu 42%
Tlak 1018 hPa
Viditelnost 10 km a více
Skoro jasno ve výšce 5000 ft

METAR: RJFT 020600Z 28005KT 230V040 9999 FEW050 17/04 Q1018

Čas: 15:31 (06:31 UTC)

Předpověď počasí

Zpráva byla vytvořena před 1 hodinou a 25 minutami, v 05:06 UTC
Předpověď platná od 02 v 06 UTC do 03 v 12 UTC
Západoseverozápadní vítr 5 kt
Viditelnost 10 km a více
Skoro jasno ve výšce 4000 ft
Změna
od 02 v 09 UTC do 02 v 11 UTC
Severovýchodní vítr 6 kt
Změna
od 02 v 21 UTC do 03 v 00 UTC
Jihozápadní vítr 7 kt
Změna
od 03 v 09 UTC do 03 v 12 UTC
Východní vítr 4 kt

TAF: RJFT 020506Z 0206/0312 30005KT 9999 FEW040 BECMG 0209/0211 04006KT BECMG 0221/0300 23007KT BECMG 0309/0312 10004KT

Stav a předpovědi počasí z více než 4 000 letišť (zprávy METAR a TAF).

Červené a žluté tečky na mapě představují dostupné meteorologické stanice.

Když kurzor umístíte na tečku, zobrazí se název stanice.

Pak kliknutím zobrazíte stav a předpověď počasí.

Chcete-li změnit mapu, kliknutím na zelené tlačítko se znaménkem +mapu přiblížíte, kliknutím na zelené tlačítko se znaménkem – mapu oddálíte a kliknutím na zelené šipky přejdete na sousední mapy.


METAR-TAF: